Time;durP1;ratioP1;P1;durP2;ratioP2;P2;SDS_P1;SDS_P2;PMS_P1;PMS_P2;Temp;Humidity;BMP_temperature;BMP_pressure;BME280_temperature;BME280_humidity;BME280_pressure;Samples;Min_cycle;Max_cycle;Signal;HPM_P1;HPM_P2
2021/06/28 00:01:36;;;;;;;1.05;0.95;;;19.60;99.90;;;;;;5049398;28;20165;-68
2021/06/28 00:04:02;;;;;;;0.28;0.28;;;19.50;99.90;;;;;;5049340;28;20193;-68
2021/06/28 00:06:28;;;;;;;0.73;0.70;;;19.50;99.90;;;;;;5049313;28;20197;-68
2021/06/28 00:08:56;;;;;;;1.17;0.95;;;19.60;99.90;;;;;;5049400;28;20169;-68
2021/06/28 00:11:23;;;;;;;0.57;0.57;;;19.50;99.90;;;;;;5049361;28;20157;-68
2021/06/28 00:13:52;;;;;;;0.73;0.73;;;19.50;99.90;;;;;;5049281;28;20193;-69
2021/06/28 00:16:18;;;;;;;0.73;0.70;;;19.50;99.90;;;;;;5047149;28;20166;-68
2021/06/28 00:18:44;;;;;;;2.05;0.50;;;19.50;99.90;;;;;;5049070;28;20157;-68
2021/06/28 00:21:10;;;;;;;0.65;0.65;;;19.40;99.90;;;;;;5049249;28;20573;-68
2021/06/28 00:23:38;;;;;;;0.28;0.28;;;19.40;99.90;;;;;;5049214;28;20224;-68
2021/06/28 00:26:04;;;;;;;0.40;0.40;;;19.40;99.90;;;;;;5049103;28;20193;-69
2021/06/28 00:28:31;;;;;;;0.30;0.30;;;19.40;99.90;;;;;;5049013;28;20177;-68
2021/06/28 00:30:57;;;;;;;0.20;0.17;;;19.40;99.90;;;;;;5049024;28;20232;-68
2021/06/28 00:33:24;;;;;;;0.50;0.50;;;19.40;99.90;;;;;;5049019;28;20197;-68
2021/06/28 00:35:49;;;;;;;0.65;0.57;;;19.50;99.90;;;;;;5049026;28;20623;-68
2021/06/28 00:38:17;;;;;;;0.30;0.30;;;19.50;99.90;;;;;;5048714;28;20153;-68
2021/06/28 00:40:44;;;;;;;0.30;0.30;;;19.50;99.90;;;;;;5048995;28;20162;-68
2021/06/28 00:43:11;;;;;;;0.50;0.50;;;19.40;99.90;;;;;;5048879;28;20181;-68
2021/06/28 00:45:39;;;;;;;0.20;0.20;;;19.40;99.90;;;;;;5081467;28;20283;-69
2021/06/28 00:48:08;;;;;;;1.67;1.13;;;19.20;99.90;;;;;;5088961;28;20163;-68
2021/06/28 00:50:37;;;;;;;0.30;0.30;;;19.10;99.90;;;;;;5088978;28;20171;-67
2021/06/28 00:53:06;;;;;;;0.50;0.50;;;19.10;99.90;;;;;;5070840;28;20285;-68
2021/06/28 00:55:32;;;;;;;0.57;0.57;;;19.10;99.90;;;;;;5089018;28;20163;-67
2021/06/28 00:57:58;;;;;;;0.22;0.22;;;19.10;99.90;;;;;;5088923;28;20156;-67
2021/06/28 01:00:26;;;;;;;0.15;0.15;;;19.10;99.90;;;;;;5091886;28;20210;-67
2021/06/28 01:02:52;;;;;;;1.27;0.55;;;19.10;99.90;;;;;;5092344;28;20161;-67
2021/06/28 01:05:21;;;;;;;1.20;0.55;;;19.10;99.90;;;;;;5092755;28;20195;-68
2021/06/28 01:07:48;;;;;;;1.55;1.27;;;18.90;99.90;;;;;;5074748;28;20652;-69
2021/06/28 01:10:15;;;;;;;1.10;1.00;;;18.90;99.90;;;;;;5074297;28;20287;-68
2021/06/28 01:12:45;;;;;;;0.47;0.47;;;18.90;99.90;;;;;;5092439;28;20148;-68
2021/06/28 01:15:12;;;;;;;0.32;0.32;;;18.90;99.90;;;;;;5091931;28;20168;-68
2021/06/28 01:17:39;;;;;;;0.73;0.73;;;18.90;99.90;;;;;;5092451;28;20190;-68
2021/06/28 01:20:12;;;;;;;0.75;0.52;;;18.90;99.90;;;;;;5092377;28;20202;-68
2021/06/28 01:22:41;;;;;;;0.40;0.40;;;18.80;99.90;;;;;;5090901;28;20229;-68
2021/06/28 01:25:10;;;;;;;0.60;0.60;;;18.80;99.90;;;;;;5092302;28;20174;-68
2021/06/28 01:27:37;;;;;;;1.05;1.05;;;18.80;99.90;;;;;;5092379;28;20195;-68
2021/06/28 01:30:07;;;;;;;0.50;0.22;;;18.80;99.90;;;;;;5092162;28;20165;-67
2021/06/28 01:32:33;;;;;;;0.82;0.82;;;18.80;99.90;;;;;;5092135;28;20266;-67
2021/06/28 01:34:59;;;;;;;0.30;0.30;;;18.70;99.90;;;;;;5092136;28;20156;-67
2021/06/28 01:37:29;;;;;;;0.82;0.50;;;18.80;99.90;;;;;;5074206;28;20588;-67
2021/06/28 01:39:59;;;;;;;0.90;0.88;;;18.80;99.90;;;;;;5074295;28;20163;-67
2021/06/28 01:42:26;;;;;;;0.50;0.50;;;18.80;99.90;;;;;;5091969;28;20286;-68
2021/06/28 01:44:53;;;;;;;1.77;0.60;;;18.80;99.90;;;;;;5091677;28;20228;-67
2021/06/28 01:47:20;;;;;;;15.93;0.93;;;18.70;99.90;;;;;;5091950;28;20192;-68
2021/06/28 01:49:46;;;;;;;0.52;0.52;;;18.70;99.90;;;;;;5091838;28;20152;-68
2021/06/28 01:52:13;;;;;;;0.93;0.85;;;18.70;99.90;;;;;;5091942;28;20171;-69
2021/06/28 01:54:40;;;;;;;0.63;0.63;;;18.60;99.90;;;;;;5091801;28;20219;-68
2021/06/28 01:57:07;;;;;;;0.43;0.43;;;18.60;99.90;;;;;;5073741;28;20172;-68
2021/06/28 01:59:37;;;;;;;0.47;0.45;;;18.50;99.90;;;;;;5091657;28;20170;-68
2021/06/28 02:02:05;;;;;;;0.20;0.20;;;18.50;99.90;;;;;;5091719;28;20168;-68
2021/06/28 02:04:32;;;;;;;0.17;0.17;;;18.50;99.90;;;;;;5091663;28;20617;-68
2021/06/28 02:06:59;;;;;;;0.50;0.50;;;18.40;99.90;;;;;;5091521;28;20187;-68
2021/06/28 02:09:26;;;;;;;0.80;0.80;;;18.40;99.90;;;;;;5091507;28;20156;-68
2021/06/28 02:11:52;;;;;;;0.30;0.30;;;18.40;99.90;;;;;;5090247;28;20156;-68
2021/06/28 02:14:18;;;;;;;0.30;0.30;;;18.40;99.90;;;;;;5091360;28;20192;-68
2021/06/28 02:16:45;;;;;;;1.17;1.08;;;18.30;99.90;;;;;;5091339;28;20206;-68
2021/06/28 02:19:16;;;;;;;0.98;0.77;;;18.20;99.90;;;;;;5091371;28;20219;-68
2021/06/28 02:21:43;;;;;;;1.10;1.10;;;18.10;99.90;;;;;;5091286;28;20192;-67
2021/06/28 02:24:10;;;;;;;0.73;0.73;;;18.10;99.90;;;;;;5090926;28;20203;-68
2021/06/28 02:26:38;;;;;;;0.20;0.20;;;18.10;99.90;;;;;;5073045;28;20195;-68
2021/06/28 02:29:04;;;;;;;1.00;0.80;;;18.10;99.90;;;;;;5091116;28;20223;-68
2021/06/28 02:31:30;;;;;;;0.47;0.47;;;18.00;99.90;;;;;;5091206;28;20164;-68
2021/06/28 02:33:56;;;;;;;0.73;0.73;;;17.90;99.90;;;;;;5072821;28;20215;-67
2021/06/28 02:36:25;;;;;;;0.38;0.38;;;18.00;99.90;;;;;;5072892;28;20164;-68
2021/06/28 02:38:52;;;;;;;0.10;0.10;;;17.90;99.90;;;;;;5072900;28;20168;-67
2021/06/28 02:41:20;;;;;;;0.65;0.47;;;18.00;99.90;;;;;;5072696;28;20686;-69
2021/06/28 02:43:47;;;;;;;0.45;0.45;;;18.10;99.90;;;;;;5090264;28;20684;-69
2021/06/28 02:46:13;;;;;;;0.20;0.20;;;18.00;99.90;;;;;;5090558;28;20192;-70
2021/06/28 02:48:41;;;;;;;0.70;0.70;;;18.00;99.90;;;;;;5090670;28;20636;-67
2021/06/28 02:51:08;;;;;;;0.85;0.85;;;18.10;99.90;;;;;;5072597;28;20198;-68
2021/06/28 02:53:35;;;;;;;0.63;0.60;;;18.10;99.90;;;;;;5090408;28;20229;-69
2021/06/28 02:56:14;;;;;;;0.25;0.25;;;18.00;99.90;;;;;;5090455;28;20160;-69
2021/06/28 02:58:44;;;;;;;0.28;0.28;;;18.10;99.90;;;;;;5090437;28;20152;-69
2021/06/28 03:01:12;;;;;;;0.30;0.30;;;18.10;99.90;;;;;;5072326;28;20275;-68
2021/06/28 03:03:37;;;;;;;0.60;0.60;;;18.10;99.90;;;;;;5090330;28;20192;-69
2021/06/28 03:06:03;;;;;;;0.73;0.73;;;18.00;99.90;;;;;;5090199;28;20660;-69
2021/06/28 03:08:29;;;;;;;0.40;0.40;;;18.10;99.90;;;;;;5072239;28;20188;-68
2021/06/28 03:10:57;;;;;;;1.00;0.95;;;18.10;99.90;;;;;;5090096;28;20156;-69
2021/06/28 03:13:23;;;;;;;0.35;0.35;;;18.00;99.90;;;;;;5090064;28;20183;-69
2021/06/28 03:15:48;;;;;;;0.65;0.65;;;17.80;99.90;;;;;;5090268;28;20273;-69
2021/06/28 03:18:14;;;;;;;0.17;0.17;;;17.70;99.90;;;;;;5090037;28;20160;-69
2021/06/28 03:20:40;;;;;;;0.45;0.45;;;17.70;99.90;;;;;;5089882;28;20613;-68
2021/06/28 03:23:06;;;;;;;0.32;0.32;;;17.80;99.90;;;;;;5089549;28;20195;-69
2021/06/28 03:25:32;;;;;;;0.57;0.57;;;18.00;99.90;;;;;;5089437;28;20157;-69
2021/06/28 03:27:58;;;;;;;0.57;0.57;;;17.90;99.90;;;;;;5089796;28;20192;-69
2021/06/28 03:30:24;;;;;;;1.15;0.68;;;18.00;99.90;;;;;;5089864;28;20500;-69
2021/06/28 03:32:50;;;;;;;0.70;0.70;;;18.00;99.90;;;;;;5071586;28;20198;-69
2021/06/28 03:35:16;;;;;;;0.73;0.73;;;18.20;99.90;;;;;;5089724;28;20148;-69
2021/06/28 03:37:42;;;;;;;0.80;0.60;;;18.20;99.90;;;;;;5089588;28;20219;-69
2021/06/28 03:40:11;;;;;;;0.77;0.77;;;18.20;99.90;;;;;;5071504;28;20176;-69
2021/06/28 03:42:37;;;;;;;0.55;0.55;;;18.30;99.90;;;;;;5089215;28;20199;-69
2021/06/28 03:45:12;;;;;;;1.08;0.68;;;18.40;99.90;;;;;;5089202;28;20714;-67
2021/06/28 03:47:39;;;;;;;0.47;0.47;;;18.60;99.90;;;;;;5089341;28;20187;-70
2021/06/28 03:50:09;;;;;;;0.20;0.20;;;18.80;99.90;;;;;;5089437;28;20220;-69
2021/06/28 03:52:35;;;;;;;1.25;0.93;;;18.90;99.90;;;;;;5089204;28;20245;-67
2021/06/28 03:55:02;;;;;;;0.65;0.65;;;19.10;99.90;;;;;;5089246;28;20179;-69
2021/06/28 03:57:27;;;;;;;1.05;0.80;;;19.30;99.90;;;;;;5089469;28;20171;-70
2021/06/28 03:59:53;;;;;;;0.68;0.68;;;19.80;99.90;;;;;;5071129;28;20179;-67
2021/06/28 04:02:19;;;;;;;0.30;0.30;;;20.20;99.90;;;;;;5089176;28;20216;-69
2021/06/28 04:04:48;;;;;;;0.35;0.35;;;20.60;99.90;;;;;;5089294;28;20182;-70
2021/06/28 04:07:15;;;;;;;0.70;0.70;;;21.20;99.90;;;;;;5071261;28;20199;-69
2021/06/28 04:09:42;;;;;;;0.30;0.30;;;21.60;99.90;;;;;;5089134;28;20186;-66
2021/06/28 04:12:10;;;;;;;0.73;0.73;;;21.80;99.90;;;;;;5088108;28;20220;-69
2021/06/28 04:14:37;;;;;;;0.55;0.55;;;22.50;99.90;;;;;;5088998;28;20152;-69
2021/06/28 04:17:06;;;;;;;0.88;0.88;;;22.70;99.90;;;;;;5089201;28;20152;-69
2021/06/28 04:19:32;;;;;;;1.20;1.08;;;23.00;99.90;;;;;;5088922;28;20155;-69
2021/06/28 04:21:58;;;;;;;1.30;0.50;;;23.20;99.90;;;;;;5088423;28;20155;-69
2021/06/28 04:24:24;;;;;;;0.40;0.40;;;23.20;99.90;;;;;;5088897;28;20198;-69
2021/06/28 04:26:49;;;;;;;0.77;0.77;;;23.60;99.90;;;;;;5088905;28;20304;-70
2021/06/28 04:29:15;;;;;;;1.65;0.88;;;24.00;99.90;;;;;;5088684;28;20163;-66
2021/06/28 04:31:41;;;;;;;0.57;0.57;;;24.40;99.90;;;;;;5088817;28;20180;-69
2021/06/28 04:34:08;;;;;;;1.10;1.05;;;24.70;99.90;;;;;;5089774;28;20194;-68
2021/06/28 04:36:34;;;;;;;0.60;0.60;;;24.80;99.90;;;;;;5092972;28;20239;-69
2021/06/28 04:39:00;;;;;;;0.28;0.28;;;25.00;99.90;;;;;;5092773;28;20156;-68
2021/06/28 04:41:26;;;;;;;0.80;0.50;;;24.70;99.90;;;;;;5074936;28;20192;-68
2021/06/28 04:43:52;;;;;;;0.40;0.40;;;24.50;99.90;;;;;;5092315;28;20197;-68
2021/06/28 04:46:18;;;;;;;1.17;1.08;;;24.50;99.90;;;;;;5092840;28;20191;-68
2021/06/28 04:48:44;;;;;;;0.75;0.75;;;24.90;99.90;;;;;;5092719;28;20162;-68
2021/06/28 04:51:12;;;;;;;0.57;0.57;;;25.30;99.90;;;;;;5092848;28;20166;-68
2021/06/28 04:53:38;;;;;;;2.35;0.57;;;25.90;99.90;;;;;;5092602;28;20191;-69
2021/06/28 04:56:04;;;;;;;0.85;0.85;;;26.80;99.90;;;;;;5092753;28;20173;-69
2021/06/28 04:58:31;;;;;;;1.88;0.90;;;27.20;99.90;;;;;;5092784;28;20167;-68
2021/06/28 05:00:58;;;;;;;0.85;0.85;;;26.30;99.90;;;;;;5092218;28;20163;-68
2021/06/28 05:03:24;;;;;;;0.73;0.73;;;25.50;99.90;;;;;;5092276;28;20210;-69
2021/06/28 05:05:50;;;;;;;1.08;1.05;;;25.10;99.90;;;;;;5092411;28;20160;-68
2021/06/28 05:08:15;;;;;;;1.38;1.13;;;25.20;99.90;;;;;;5092275;28;20211;-69
2021/06/28 05:10:41;;;;;;;1.15;1.15;;;25.30;99.90;;;;;;5092025;28;20247;-68
2021/06/28 05:13:11;;;;;;;0.65;0.65;;;25.40;99.90;;;;;;5073772;28;20239;-68
2021/06/28 05:15:37;;;;;;;2.72;0.95;;;26.00;99.90;;;;;;5092477;28;20217;-69
2021/06/28 05:18:03;;;;;;;0.35;0.30;;;26.60;99.90;;;;;;5092003;28;20183;-69
2021/06/28 05:20:29;;;;;;;0.77;0.77;;;26.40;99.90;;;;;;5091794;28;20163;-68
2021/06/28 05:22:54;;;;;;;0.47;0.47;;;26.30;99.90;;;;;;5092137;28;20221;-68
2021/06/28 05:25:20;;;;;;;2.75;1.23;;;27.20;99.90;;;;;;5074030;28;20175;-68
2021/06/28 05:27:46;;;;;;;0.57;0.57;;;28.10;99.90;;;;;;5092030;28;20198;-68
2021/06/28 05:30:15;;;;;;;0.40;0.40;;;28.40;99.90;;;;;;5074001;28;20167;-68
2021/06/28 05:32:42;;;;;;;2.25;0.93;;;28.50;99.90;;;;;;5091477;28;20188;-67
2021/06/28 05:35:08;;;;;;;0.70;0.70;;;28.20;99.90;;;;;;5073573;28;20206;-68
2021/06/28 05:37:35;;;;;;;1.65;0.75;;;27.80;99.90;;;;;;5073640;28;20187;-70
2021/06/28 05:40:02;;;;;;;0.30;0.30;;;28.10;99.90;;;;;;5091727;28;20158;-69
2021/06/28 05:42:27;;;;;;;7.57;1.65;;;28.40;99.90;;;;;;5073532;28;20199;-67
2021/06/28 05:44:53;;;;;;;0.20;0.20;;;27.80;99.90;;;;;;5091125;28;20255;-69
2021/06/28 05:47:22;;;;;;;0.38;0.38;;;27.60;99.90;;;;;;5091662;28;20195;-69
2021/06/28 05:49:49;;;;;;;1.80;1.20;;;27.90;99.90;;;;;;5073566;28;20229;-69
2021/06/28 05:52:19;;;;;;;1.00;0.50;;;27.60;99.90;;;;;;5091450;28;20152;-69
2021/06/28 05:54:46;;;;;;;2.22;1.92;;;28.30;99.90;;;;;;5091315;28;20152;-69
2021/06/28 05:57:12;;;;;;;0.77;0.77;;;29.30;99.90;;;;;;5091683;28;20175;-69
2021/06/28 05:59:38;;;;;;;1.05;1.05;;;29.30;99.90;;;;;;5091366;28;20166;-70
2021/06/28 06:02:04;;;;;;;0.45;0.45;;;28.90;99.90;;;;;;5091322;28;20173;-70
2021/06/28 06:04:30;;;;;;;0.75;0.73;;;28.70;99.90;;;;;;5072223;28;20203;-69
2021/06/28 06:06:55;;;;;;;0.60;0.60;;;29.10;99.90;;;;;;5090297;28;20195;-69
2021/06/28 06:09:21;;;;;;;0.45;0.45;;;29.10;99.90;;;;;;5073024;28;20250;-70
2021/06/28 06:11:47;;;;;;;1.05;0.95;;;29.70;99.90;;;;;;5090876;28;20247;-69
2021/06/28 06:14:15;;;;;;;0.95;0.90;;;29.30;99.90;;;;;;5086012;28;20250;-69
2021/06/28 06:16:41;;;;;;;6.88;2.78;;;28.90;99.90;;;;;;5090802;28;20194;-70
2021/06/28 06:19:07;;;;;;;0.50;0.50;;;29.40;99.90;;;;;;5090657;28;20248;-70
2021/06/28 06:21:33;;;;;;;0.47;0.47;;;30.20;99.90;;;;;;5090726;28;20148;-70
2021/06/28 06:23:59;;;;;;;2.78;1.65;;;31.40;99.90;;;;;;5108485;28;20179;-70
2021/06/28 06:26:26;;;;;;;0.95;0.77;;;32.00;99.90;;;;;;5110693;28;20197;-70
2021/06/28 06:28:51;;;;;;;3.58;0.77;;;32.70;99.90;;;;;;5111069;28;20155;-70
2021/06/28 06:31:20;;;;;;;1.30;1.20;;;33.00;99.90;;;;;;5108079;28;20166;-69
2021/06/28 06:33:46;;;;;;;1.23;1.13;;;32.90;99.90;;;;;;5090804;28;20166;-69
2021/06/28 06:36:12;;;;;;;0.98;0.85;;;31.30;99.90;;;;;;5091837;28;20151;-69
2021/06/28 06:38:38;;;;;;;1.23;1.02;;;31.70;99.90;;;;;;5110696;28;20221;-69
2021/06/28 06:41:04;;;;;;;5.07;1.45;;;32.50;99.90;;;;;;5092221;28;20167;-69
2021/06/28 06:43:30;;;;;;;0.57;0.43;;;32.10;99.90;;;;;;5110620;28;20162;-70
2021/06/28 06:45:57;;;;;;;0.98;0.68;;;31.40;99.90;;;;;;5069950;28;20239;-69
2021/06/28 06:48:23;;;;;;;0.40;0.40;;;32.10;99.90;;;;;;5070579;28;20669;-69
2021/06/28 06:50:49;;;;;;;2.83;1.05;;;32.50;99.90;;;;;;5070203;28;20187;-69
2021/06/28 06:53:15;;;;;;;0.98;0.85;;;32.50;99.90;;;;;;5070183;28;20183;-69
2021/06/28 06:55:41;;;;;;;1.10;0.63;;;33.70;99.90;;;;;;5070180;28;20221;-70
2021/06/28 06:58:10;;;;;;;0.75;0.47;;;34.30;99.90;;;;;;5069082;28;20192;-70
2021/06/28 07:00:39;;;;;;;9.18;0.98;;;34.50;99.90;;;;;;5069995;28;20153;-69
2021/06/28 07:03:06;;;;;;;0.73;0.73;;;34.60;99.90;;;;;;5070218;28;20153;-70
2021/06/28 07:05:32;;;;;;;0.47;0.47;;;34.50;99.90;;;;;;5070049;28;20152;-69
2021/06/28 07:07:58;;;;;;;1.10;1.00;;;33.70;99.90;;;;;;5069878;28;20207;-69
2021/06/28 07:10:24;;;;;;;0.60;0.60;;;34.40;99.90;;;;;;5069672;28;20172;-69
2021/06/28 07:12:52;;;;;;;2.60;1.17;;;34.50;99.90;;;;;;5068298;28;20164;-69
2021/06/28 07:15:21;;;;;;;2.88;1.20;;;34.80;99.90;;;;;;5069769;28;20210;-67
2021/06/28 07:17:48;;;;;;;0.80;0.80;;;35.50;99.90;;;;;;5069642;28;20191;-69
2021/06/28 07:20:18;;;;;;;0.95;0.85;;;35.10;99.90;;;;;;5069868;28;20590;-68
2021/06/28 07:22:45;;;;;;;0.75;0.75;;;35.70;99.90;;;;;;5069399;28;20191;-69
2021/06/28 07:25:15;;;;;;;1.85;1.15;;;37.00;99.90;;;;;;5069316;28;20165;-69
2021/06/28 07:27:42;;;;;;;0.47;0.47;;;37.50;99.90;;;;;;5069592;28;20195;-69
2021/06/28 07:30:11;;;;;;;0.70;0.70;;;37.20;99.90;;;;;;5069585;28;20156;-69
2021/06/28 07:32:37;;;;;;;0.95;0.85;;;37.20;99.90;;;;;;5069384;28;20156;-68
2021/06/28 07:35:06;;;;;;;1.02;0.93;;;36.40;99.90;;;;;;5069496;28;20222;-69
2021/06/28 07:37:32;;;;;;;1.40;1.20;;;36.00;99.90;;;;;;5067952;28;20202;-69
2021/06/28 07:39:58;;;;;;;1.13;1.05;;;36.90;99.90;;;;;;5069569;28;20215;-70
2021/06/28 07:42:25;;;;;;;0.75;0.75;;;38.10;99.90;;;;;;5069146;28;20525;-70
2021/06/28 07:44:52;;;;;;;1.02;0.90;;;37.60;99.90;;;;;;5073621;28;20211;-70
2021/06/28 07:47:18;;;;;;;1.38;0.98;;;37.60;99.90;;;;;;5061946;28;20215;-68
2021/06/28 07:49:44;;;;;;;1.23;1.13;;;36.40;99.90;;;;;;5076354;28;20203;-70
2021/06/28 07:52:11;;;;;;;1.88;1.77;;;33.90;99.90;;;;;;5068855;28;20160;-70
2021/06/28 07:54:40;;;;;;;0.80;0.80;;;34.40;99.90;;;;;;5087271;28;20167;-70
2021/06/28 07:57:06;;;;;;;0.60;0.60;;;35.30;99.90;;;;;;5088941;28;20211;-69
2021/06/28 07:59:32;;;;;;;13.35;1.17;;;35.90;99.90;;;;;;5071157;28;20175;-69
2021/06/28 08:01:58;;;;;;;1.08;0.82;;;35.90;99.90;;;;;;5080062;28;20164;-70
2021/06/28 08:04:27;;;;;;;0.50;0.47;;;35.10;99.90;;;;;;5069238;28;20160;-69
2021/06/28 08:06:56;;;;;;;1.00;0.95;;;35.50;99.90;;;;;;5068727;28;20203;-68
2021/06/28 08:09:22;;;;;;;1.13;0.77;;;35.50;99.90;;;;;;5068850;28;20162;-69
2021/06/28 08:11:48;;;;;;;0.82;0.82;;;35.10;99.90;;;;;;5068608;28;20152;-69
2021/06/28 08:14:15;;;;;;;1.02;1.02;;;35.20;99.90;;;;;;5068974;28;20216;-69
2021/06/28 08:16:41;;;;;;;1.45;0.80;;;35.90;99.90;;;;;;5068457;28;20603;-69
2021/06/28 08:19:07;;;;;;;1.10;0.95;;;36.50;99.90;;;;;;5078119;28;20197;-69
2021/06/28 08:21:37;;;;;;;0.82;0.82;;;36.70;99.90;;;;;;5088589;28;20155;-69
2021/06/28 08:24:05;;;;;;;0.90;0.90;;;35.70;99.90;;;;;;5088972;28;20242;-69
2021/06/28 08:26:32;;;;;;;0.60;0.60;;;36.30;99.90;;;;;;5070603;28;20691;-69
2021/06/28 08:29:03;;;;;;;0.70;0.70;;;36.90;99.90;;;;;;5088847;28;20147;-70
2021/06/28 08:31:34;;;;;;;1.58;1.15;;;37.90;99.90;;;;;;5088431;28;20154;-70
2021/06/28 08:34:00;;;;;;;0.82;0.82;;;38.10;99.90;;;;;;5088890;28;20155;-69
2021/06/28 08:36:26;;;;;;;0.52;0.50;;;35.50;99.90;;;;;;5088542;28;20243;-69
2021/06/28 08:38:52;;;;;;;0.80;0.80;;;35.70;99.90;;;;;;5088991;28;20160;-72
2021/06/28 08:41:18;;;;;;;0.80;0.80;;;36.10;99.90;;;;;;5070553;28;20179;-71
2021/06/28 08:43:46;;;;;;;1.13;0.98;;;35.50;99.90;;;;;;5088586;28;20190;-72
2021/06/28 08:46:16;;;;;;;0.88;0.88;;;35.40;99.90;;;;;;5088650;28;20206;-72
2021/06/28 08:48:43;;;;;;;1.05;0.93;;;36.20;99.90;;;;;;5070351;28;20191;-70
2021/06/28 08:51:09;;;;;;;0.65;0.60;;;37.20;99.90;;;;;;5088427;28;20550;-72
2021/06/28 08:53:35;;;;;;;0.77;0.68;;;36.90;99.90;;;;;;5088419;28;20214;-70
2021/06/28 08:56:07;;;;;;;0.77;0.77;;;37.30;99.90;;;;;;5070259;28;20170;-72
2021/06/28 08:58:37;;;;;;;0.77;0.77;;;35.80;99.90;;;;;;5088384;28;20646;-72
2021/06/28 09:01:04;;;;;;;0.50;0.50;;;34.90;99.90;;;;;;5088294;28;20148;-72
2021/06/28 09:03:31;;;;;;;0.95;0.95;;;34.30;99.90;;;;;;5088321;28;20163;-72
2021/06/28 09:06:01;;;;;;;1.40;1.00;;;34.40;99.90;;;;;;5088610;28;20151;-72
2021/06/28 09:08:28;;;;;;;1.17;0.70;;;34.90;99.90;;;;;;5088276;28;20191;-72
2021/06/28 09:10:54;;;;;;;0.70;0.70;;;35.30;99.90;;;;;;5088078;28;20166;-72
2021/06/28 09:13:42;;;;;;;2.60;1.45;;;35.40;99.90;;;;;;5088558;28;20215;-72
2021/06/28 09:16:27;;;;;;;0.75;0.55;;;36.20;99.90;;;;;;5088392;28;20152;-72
2021/06/28 09:19:04;;;;;;;0.75;0.68;;;37.10;99.90;;;;;;5084715;28;20167;-72
2021/06/28 09:21:45;;;;;;;6.90;0.85;;;37.20;99.90;;;;;;5071105;28;20216;-71
2021/06/28 09:24:31;;;;;;;0.55;0.55;;;37.30;99.90;;;;;;5071926;28;20166;-72
2021/06/28 09:27:17;;;;;;;1.02;0.77;;;38.00;98.80;;;;;;5053936;28;20212;-72
2021/06/28 09:29:54;;;;;;;0.88;0.65;;;38.20;98.50;;;;;;5071618;28;20171;-72
2021/06/28 09:32:21;;;;;;;1.02;0.95;;;37.90;98.20;;;;;;5071233;28;20144;-71
2021/06/28 09:34:49;;;;;;;0.75;0.60;;;36.60;99.40;;;;;;5053559;28;20194;-71
2021/06/28 09:37:18;;;;;;;0.82;0.65;;;35.60;99.90;;;;;;5071535;28;20187;-71
2021/06/28 09:39:49;;;;;;;0.65;0.60;;;36.10;99.90;;;;;;5071043;28;20161;-72
2021/06/28 09:42:19;;;;;;;0.60;0.60;;;36.20;98.50;;;;;;5052855;28;20184;-71
2021/06/28 09:44:59;;;;;;;0.32;0.32;;;36.40;99.90;;;;;;5074029;28;20236;-72
2021/06/28 09:47:29;;;;;;;0.90;0.90;;;35.90;99.90;;;;;;5091289;28;20209;-71
2021/06/28 09:50:07;;;;;;;0.90;0.73;;;34.90;99.90;;;;;;5072844;28;20205;-72
2021/06/28 09:52:46;;;;;;;1.13;1.02;;;34.90;99.90;;;;;;5072764;28;20181;-72
2021/06/28 09:55:29;;;;;;;4.20;0.95;;;35.40;99.90;;;;;;5091365;28;20151;-72
2021/06/28 09:58:11;;;;;;;0.63;0.60;;;34.70;99.90;;;;;;5072898;28;20191;-72
2021/06/28 10:00:50;;;;;;;1.33;1.23;;;35.90;99.90;;;;;;5090848;28;20163;-71
2021/06/28 10:03:37;;;;;;;1.70;0.73;;;35.80;99.90;;;;;;5090812;28;20189;-71
2021/06/28 10:09:03;;;;;;;0.73;0.73;;;35.70;99.90;;;;;;5086040;28;20168;-71
2021/06/28 10:11:30;;;;;;;0.80;0.77;;;37.10;99.90;;;;;;5071534;28;20167;-72
2021/06/28 10:14:02;;;;;;;1.30;1.00;;;37.80;99.30;;;;;;5090912;28;20624;-72
2021/06/28 10:16:30;;;;;;;0.88;0.60;;;38.20;99.50;;;;;;5090802;28;20609;-72
2021/06/28 10:18:58;;;;;;;1.25;1.15;;;37.80;99.90;;;;;;5076287;28;20173;-71
2021/06/28 10:21:25;;;;;;;0.88;0.88;;;36.40;99.90;;;;;;5074376;28;20198;-71
2021/06/28 10:23:51;;;;;;;2.03;1.77;;;35.60;99.90;;;;;;5083024;28;20319;-72
2021/06/28 10:26:17;;;;;;;0.70;0.70;;;34.30;99.90;;;;;;5068957;28;20234;-72
2021/06/28 10:28:44;;;;;;;0.60;0.60;;;34.80;99.90;;;;;;5070651;28;20198;-72
2021/06/28 10:31:12;;;;;;;1.15;0.95;;;35.20;99.90;;;;;;5069785;28;20169;-72
2021/06/28 10:33:39;;;;;;;2.47;1.08;;;34.70;99.90;;;;;;5069695;28;20183;-72
2021/06/28 10:36:13;;;;;;;3.33;1.90;;;34.40;99.90;;;;;;5069234;28;20190;-72
2021/06/28 10:38:46;;;;;;;0.93;0.60;;;33.80;99.90;;;;;;5069994;28;20260;-72
2021/06/28 10:41:13;;;;;;;1.17;0.93;;;33.70;99.90;;;;;;5069922;28;20152;-72
2021/06/28 10:43:39;;;;;;;1.10;1.00;;;34.40;99.90;;;;;;5070337;28;20631;-72
2021/06/28 10:46:28;;;;;;;0.82;0.82;;;34.40;99.90;;;;;;5083391;28;20282;-72
2021/06/28 10:48:54;;;;;;;0.88;0.88;;;34.90;99.90;;;;;;5089973;28;20198;-72
2021/06/28 10:51:35;;;;;;;0.85;0.60;;;36.70;99.90;;;;;;5071712;28;20167;-71
2021/06/28 10:54:02;;;;;;;0.98;0.80;;;37.20;99.20;;;;;;5071982;28;20175;-71
2021/06/28 10:56:34;;;;;;;0.98;0.88;;;37.20;99.90;;;;;;5090140;28;20163;-72
2021/06/28 10:59:14;;;;;;;9.05;1.52;;;36.80;99.90;;;;;;5088727;28;20175;-71
2021/06/28 11:01:47;;;;;;;0.90;0.68;;;35.40;99.90;;;;;;5089720;28;20212;-71
2021/06/28 11:04:22;;;;;;;2.03;1.00;;;34.80;99.90;;;;;;5071866;28;20221;-72
2021/06/28 11:07:01;;;;;;;0.40;0.40;;;34.50;99.90;;;;;;5089754;28;20222;-71
2021/06/28 11:09:39;;;;;;;0.98;0.98;;;33.80;99.90;;;;;;5070642;28;20167;-72
2021/06/28 11:12:25;;;;;;;0.73;0.73;;;34.40;99.90;;;;;;5089898;28;20166;-72
2021/06/28 11:14:57;;;;;;;0.68;0.68;;;34.10;99.90;;;;;;5089907;28;20151;-72
2021/06/28 11:17:42;;;;;;;2.78;1.00;;;34.30;99.90;;;;;;5089919;28;20191;-72
2021/06/28 11:20:18;;;;;;;0.80;0.80;;;34.30;99.90;;;;;;5075605;28;20175;-71
2021/06/28 11:23:00;;;;;;;1.50;1.33;;;34.20;99.90;;;;;;5069530;28;20366;-71
2021/06/28 11:25:38;;;;;;;0.80;0.80;;;34.40;99.90;;;;;;5069271;28;20157;-71
2021/06/28 11:28:04;;;;;;;0.82;0.80;;;34.00;99.90;;;;;;5069209;28;20225;-71
2021/06/28 11:30:37;;;;;;;1.63;1.08;;;33.90;99.90;;;;;;5074588;28;20175;-71
2021/06/28 11:33:13;;;;;;;0.82;0.77;;;34.30;99.90;;;;;;5109775;28;20311;-71
2021/06/28 11:35:50;;;;;;;0.55;0.50;;;34.40;99.90;;;;;;5098857;28;20174;-70
2021/06/28 11:38:26;;;;;;;1.65;0.73;;;34.20;99.90;;;;;;5106343;28;20275;-70
2021/06/28 11:41:00;;;;;;;0.50;0.50;;;34.40;99.90;;;;;;5089377;28;20152;-72
2021/06/28 11:43:39;;;;;;;0.55;0.55;;;35.10;99.90;;;;;;5089007;28;20257;-73
2021/06/28 11:46:16;;;;;;;0.80;0.75;;;35.60;98.90;;;;;;5057195;28;20235;-71
2021/06/28 11:48:56;;;;;;;0.45;0.45;;;36.00;99.70;;;;;;5069314;28;20156;-71
2021/06/28 11:51:23;;;;;;;1.00;0.75;;;36.40;98.00;;;;;;5051148;28;20250;-71
2021/06/28 11:53:52;;;;;;;0.75;0.63;;;36.90;94.60;;;;;;5082429;28;20187;-71
2021/06/28 11:56:26;;;;;;;0.93;0.82;;;36.50;95.10;;;;;;5088974;28;20199;-71
2021/06/28 11:59:00;;;;;;;0.80;0.70;;;37.20;95.40;;;;;;5084452;28;20659;-71
2021/06/28 12:01:37;;;;;;;0.85;0.85;;;37.10;97.60;;;;;;5088554;28;20178;-70
2021/06/28 12:04:05;;;;;;;0.57;0.57;;;37.20;96.70;;;;;;5070821;28;20238;-71
2021/06/28 12:06:33;;;;;;;0.60;0.57;;;36.70;95.90;;;;;;5070998;28;20203;-71
2021/06/28 12:09:09;;;;;;;0.63;0.63;;;36.20;96.20;;;;;;5070755;28;20189;-70
2021/06/28 12:11:55;;;;;;;25.33;1.50;;;35.60;95.00;;;;;;5088575;28;20162;-72
2021/06/28 12:14:46;;;;;;;0.95;0.95;;;35.30;94.90;;;;;;5070352;28;20174;-71
2021/06/28 12:17:16;;;;;;;0.75;0.63;;;35.90;96.40;;;;;;5088761;28;20198;-73
2021/06/28 12:19:46;;;;;;;0.80;0.80;;;35.30;98.70;;;;;;5088964;28;20553;-72
2021/06/28 12:22:16;;;;;;;1.60;1.13;;;35.00;99.10;;;;;;5088686;28;20163;-72
2021/06/28 12:24:44;;;;;;;0.82;0.77;;;34.10;97.40;;;;;;5088530;28;20178;-72
2021/06/28 12:27:13;;;;;;;0.75;0.75;;;33.40;98.50;;;;;;5088962;28;20199;-72
2021/06/28 12:29:45;;;;;;;0.93;0.63;;;32.40;97.60;;;;;;5078920;28;20164;-72
2021/06/28 12:32:13;;;;;;;0.60;0.40;;;31.90;98.70;;;;;;5067817;28;20198;-72
2021/06/28 12:34:39;;;;;;;0.63;0.50;;;31.40;98.10;;;;;;5068810;28;20198;-72
2021/06/28 12:37:07;;;;;;;0.50;0.50;;;31.30;98.60;;;;;;5066307;28;20199;-72
2021/06/28 12:39:34;;;;;;;0.38;0.25;;;31.30;98.30;;;;;;5079889;28;20175;-72
2021/06/28 12:42:18;;;;;;;0.82;0.68;;;31.20;96.80;;;;;;5082968;28;20171;-72
2021/06/28 12:44:45;;;;;;;0.93;0.82;;;31.30;99.90;;;;;;5086571;28;20222;-72
2021/06/28 12:47:14;;;;;;;0.40;0.40;;;31.20;99.50;;;;;;5068146;28;20210;-72
2021/06/28 12:49:40;;;;;;;0.80;0.73;;;31.10;99.10;;;;;;5066728;28;20191;-72
2021/06/28 12:52:31;;;;;;;0.43;0.43;;;31.10;99.90;;;;;;5068154;28;20148;-72
2021/06/28 12:55:06;;;;;;;0.73;0.73;;;31.50;99.90;;;;;;5050190;28;20160;-72
2021/06/28 12:57:33;;;;;;;6.75;1.95;;;31.70;98.20;;;;;;5072372;28;20198;-72